Time;durP1;ratioP1;P1;durP2;ratioP2;P2;SDS_P1;SDS_P2;PMS_P1;PMS_P2;Temp;Humidity;BMP_temperature;BMP_pressure;BME280_temperature;BME280_humidity;BME280_pressure;Samples;Min_cycle;Max_cycle;Signal;HPM_P1;HPM_P2
2021/09/27 00:01:42;;;;;;;68.70;46.10;;;;;;;;;;5053059;28;20131;-69
2021/09/27 00:04:27;;;;;;;68.53;46.40;;;;;;;;;;5052508;28;20049;-69
2021/09/27 00:07:12;;;;;;;90.75;50.30;;;;;;;;;;5051152;28;20048;-68
2021/09/27 00:09:57;;;;;;;76.60;47.92;;;;;;;;;;5051491;28;20123;-69
2021/09/27 00:12:42;;;;;;;93.40;50.40;;;;;;;;;;5052861;28;20049;-69
2021/09/27 00:15:30;;;;;;;61.17;41.95;;;;;;;;;;5048957;28;20053;-69
2021/09/27 00:18:15;;;;;;;63.65;42.17;;;;;;;;;;5052821;28;20056;-70
2021/09/27 00:21:01;;;;;;;57.40;40.03;;;;;;;;;;5051741;28;20091;-69
2021/09/27 00:23:47;;;;;;;70.03;45.53;;;;;;;;;;5051173;28;20057;-68
2021/09/27 00:26:32;;;;;;;46.50;34.90;;;;;;;;;;5052506;28;20065;-69
2021/09/27 00:29:18;;;;;;;53.97;37.10;;;;;;;;;;5051594;28;20053;-69
2021/09/27 00:32:03;;;;;;;61.45;40.30;;;;;;;;;;5052247;28;20049;-69
2021/09/27 00:34:48;;;;;;;51.25;34.55;;;;;;;;;;5050493;28;20499;-69
2021/09/27 00:37:33;;;;;;;67.47;43.05;;;;;;;;;;5052430;28;20048;-70
2021/09/27 00:40:20;;;;;;;65.20;42.70;;;;;;;;;;5052283;28;20554;-70
2021/09/27 00:43:05;;;;;;;66.72;42.88;;;;;;;;;;5050803;28;20057;-69
2021/09/27 00:45:52;;;;;;;58.53;41.50;;;;;;;;;;5050510;28;20499;-69
2021/09/27 00:48:37;;;;;;;57.03;38.20;;;;;;;;;;5035250;28;20053;-69
2021/09/27 00:51:33;;;;;;;78.07;46.03;;;;;;;;;;5051070;28;20060;-68
2021/09/27 00:54:22;;;;;;;74.95;47.05;;;;;;;;;;5051714;28;20507;-68
2021/09/27 00:57:12;;;;;;;58.28;39.92;;;;;;;;;;5035487;28;20408;-70
2021/09/27 00:59:57;;;;;;;74.22;45.60;;;;;;;;;;5051279;28;20057;-69
2021/09/27 01:02:42;;;;;;;75.65;47.70;;;;;;;;;;5051119;28;20049;-69
2021/09/27 01:05:28;;;;;;;108.18;48.80;;;;;;;;;;5050214;28;20053;-69
2021/09/27 01:08:17;;;;;;;187.07;63.65;;;;;;;;;;5049552;28;20069;-69
2021/09/27 01:11:08;;;;;;;84.35;48.30;;;;;;;;;;5049760;28;20049;-70
2021/09/27 01:13:53;;;;;;;80.23;48.53;;;;;;;;;;5045388;28;20082;-69
2021/09/27 01:16:40;;;;;;;68.80;43.08;;;;;;;;;;5052000;28;20354;-69
2021/09/27 01:19:26;;;;;;;71.10;43.55;;;;;;;;;;5050780;28;20053;-71
2021/09/27 01:22:30;;;;;;;214.98;42.67;;;;;;;;;;5048506;28;20075;-70
2021/09/27 01:25:22;;;;;;;45.63;30.73;;;;;;;;;;5051535;28;20053;-71
2021/09/27 01:28:08;;;;;;;;;;;;;;;;;;5037027;28;20060;-69
2021/09/27 01:30:56;;;;;;;50.55;32.40;;;;;;;;;;5050350;28;19978;-71
2021/09/27 01:33:44;;;;;;;66.75;41.08;;;;;;;;;;5034384;28;20491;-70
2021/09/27 01:36:38;;;;;;;52.80;36.92;;;;;;;;;;5050720;28;20120;-69
2021/09/27 01:39:33;;;;;;;64.70;39.70;;;;;;;;;;5051533;28;20064;-68
2021/09/27 01:42:20;;;;;;;51.42;35.92;;;;;;;;;;5033728;28;20415;-69
2021/09/27 01:45:10;;;;;;;59.00;40.75;;;;;;;;;;5050154;28;20414;-68
2021/09/27 01:48:11;;;;;;;68.97;42.65;;;;;;;;;;5036300;28;20491;-68
2021/09/27 01:50:58;;;;;;;76.63;44.38;;;;;;;;;;5050277;28;20310;-68
2021/09/27 01:53:44;;;;;;;83.35;46.97;;;;;;;;;;5034101;28;20498;-69
2021/09/27 01:56:38;;;;;;;90.82;48.90;;;;;;;;;;5050493;28;20127;-70
2021/09/27 01:59:27;;;;;;;82.40;47.30;;;;;;;;;;5051262;28;20099;-69
2021/09/27 02:02:21;;;;;;;72.22;43.97;;;;;;;;;;5054217;28;20045;-69
2021/09/27 02:05:14;;;;;;;83.63;44.50;;;;;;;;;;5038119;28;20053;-69
2021/09/27 02:08:05;;;;;;;72.25;43.22;;;;;;;;;;5053851;28;20053;-69
2021/09/27 02:10:55;;;;;;;159.75;54.72;;;;;;;;;;5053154;28;20053;-68
2021/09/27 02:13:50;;;;;;;78.68;42.97;;;;;;;;;;5052221;28;20079;-68
2021/09/27 02:16:41;;;;;;;64.20;42.55;;;;;;;;;;5039754;28;20052;-69
2021/09/27 02:19:41;;;;;;;85.25;49.47;;;;;;;;;;5053959;28;20057;-69
2021/09/27 02:22:44;;;;;;;83.60;47.80;;;;;;;;;;5054891;28;20087;-68
2021/09/27 02:25:33;;;;;;;74.70;43.60;;;;;;;;;;5037795;28;20053;-69
2021/09/27 02:28:20;;;;;;;62.25;42.92;;;;;;;;;;5053689;28;20127;-69
2021/09/27 02:31:10;;;;;;;85.95;48.22;;;;;;;;;;5053703;28;20044;-70
2021/09/27 02:34:14;;;;;;;75.45;44.72;;;;;;;;;;5053462;28;20057;-69
2021/09/27 02:37:02;;;;;;;69.25;44.38;;;;;;;;;;5053460;28;20445;-70
2021/09/27 02:39:58;;;;;;;80.50;47.05;;;;;;;;;;5053750;28;20461;-69
2021/09/27 02:42:47;;;;;;;70.95;42.88;;;;;;;;;;5053391;28;20478;-70
2021/09/27 02:45:32;;;;;;;68.25;42.97;;;;;;;;;;5052785;28;20052;-70
2021/09/27 02:48:19;;;;;;;67.50;40.22;;;;;;;;;;5053547;28;20454;-70
2021/09/27 02:51:04;;;;;;;78.43;46.20;;;;;;;;;;5054407;28;20423;-71
2021/09/27 02:53:49;;;;;;;81.47;46.72;;;;;;;;;;5052880;28;20057;-71
2021/09/27 02:56:50;;;;;;;57.78;38.63;;;;;;;;;;5052824;28;20083;-70
2021/09/27 02:59:38;;;;;;;65.88;41.22;;;;;;;;;;5053206;28;20057;-71
2021/09/27 03:02:34;;;;;;;49.53;36.30;;;;;;;;;;5052748;28;20503;-70
2021/09/27 03:05:37;;;;;;;62.65;40.55;;;;;;;;;;5036907;28;20515;-70
2021/09/27 03:08:34;;;;;;;74.43;45.60;;;;;;;;;;5052615;28;20077;-70
2021/09/27 03:11:28;;;;;;;76.65;44.25;;;;;;;;;;5038215;28;20415;-71
2021/09/27 03:14:22;;;;;;;80.15;46.75;;;;;;;;;;5052568;28;20458;-68
2021/09/27 03:17:19;;;;;;;70.15;46.03;;;;;;;;;;5051076;28;20052;-69
2021/09/27 03:20:11;;;;;;;72.10;44.95;;;;;;;;;;5053737;28;20056;-70
2021/09/27 03:23:03;;;;;;;55.67;40.47;;;;;;;;;;5053745;28;20057;-68
2021/09/27 03:25:49;;;;;;;75.55;44.92;;;;;;;;;;5051231;28;20053;-70
2021/09/27 03:28:46;;;;;;;73.75;44.65;;;;;;;;;;5053557;28;20053;-69
2021/09/27 03:31:31;;;;;;;74.13;44.95;;;;;;;;;;5038332;28;20053;-69
2021/09/27 03:34:33;;;;;;;74.63;44.90;;;;;;;;;;5053205;28;20049;-69
2021/09/27 03:37:18;;;;;;;;;;;;;;;;;;5050403;28;20495;-70
2021/09/27 03:40:10;;;;;;;71.70;42.67;;;;;;;;;;5053336;28;19986;-70
2021/09/27 03:42:58;;;;;;;67.13;43.75;;;;;;;;;;5052030;28;20057;-69
2021/09/27 03:45:52;;;;;;;70.55;42.42;;;;;;;;;;5037808;28;20056;-70
2021/09/27 03:48:43;;;;;;;73.10;45.95;;;;;;;;;;5036314;28;20057;-70
2021/09/27 03:51:32;;;;;;;71.65;45.45;;;;;;;;;;5052125;28;20128;-69
2021/09/27 03:54:19;;;;;;;76.30;45.95;;;;;;;;;;5037575;28;20103;-70
2021/09/27 03:57:07;;;;;;;73.20;45.60;;;;;;;;;;5050798;28;20045;-69
2021/09/27 04:00:09;;;;;;;79.47;48.53;;;;;;;;;;5050731;28;20057;-69
2021/09/27 04:02:57;;;;;;;76.40;45.13;;;;;;;;;;5050146;28;20079;-69
2021/09/27 04:05:45;;;;;;;85.00;47.47;;;;;;;;;;5051702;28;20053;-68
2021/09/27 04:08:30;;;;;;;80.82;45.45;;;;;;;;;;5050159;28;20106;-69
2021/09/27 04:11:18;;;;;;;74.68;45.53;;;;;;;;;;5051696;28;20110;-70
2021/09/27 04:14:12;;;;;;;67.03;43.83;;;;;;;;;;5052552;28;20045;-70
2021/09/27 04:17:00;;;;;;;76.60;44.75;;;;;;;;;;5052609;28;20057;-70
2021/09/27 04:20:13;;;;;;;75.90;45.85;;;;;;;;;;5050214;28;20622;-71
2021/09/27 04:23:06;;;;;;;71.95;45.20;;;;;;;;;;5050686;28;20053;-71
2021/09/27 04:25:56;;;;;;;81.80;48.50;;;;;;;;;;5037330;28;20061;-71
2021/09/27 04:29:03;;;;;;;76.85;45.80;;;;;;;;;;5014404;28;20060;-70
2021/09/27 04:32:04;;;;;;;75.20;45.72;;;;;;;;;;5028264;28;20049;-69
2021/09/27 04:35:08;;;;;;;90.57;50.67;;;;;;;;;;5012517;28;20120;-70
2021/09/27 04:37:53;;;;;;;82.45;47.30;;;;;;;;;;5038443;28;20120;-69
2021/09/27 04:40:50;;;;;;;85.47;48.97;;;;;;;;;;5052391;28;20060;-69
2021/09/27 04:43:35;;;;;;;82.90;47.15;;;;;;;;;;5036583;28;20056;-70
2021/09/27 04:46:27;;;;;;;95.93;52.60;;;;;;;;;;5052152;28;20060;-69
2021/09/27 04:49:21;;;;;;;86.90;48.35;;;;;;;;;;5051307;28;20049;-69
2021/09/27 04:52:29;;;;;;;100.75;53.10;;;;;;;;;;5052151;28;20056;-69
2021/09/27 04:55:33;;;;;;;82.60;49.60;;;;;;;;;;5050701;28;20049;-69
2021/09/27 04:58:57;;;;;;;95.32;52.13;;;;;;;;;;5050328;28;20499;-69
2021/09/27 05:02:09;;;;;;;87.10;48.28;;;;;;;;;;4990406;28;20058;-70
2021/09/27 05:04:55;;;;;;;87.70;49.50;;;;;;;;;;4980422;28;20066;-70
2021/09/27 05:07:43;;;;;;;78.43;45.58;;;;;;;;;;5048645;28;20057;-70
2021/09/27 05:10:51;;;;;;;81.57;48.72;;;;;;;;;;5051878;28;20085;-69
2021/09/27 05:13:45;;;;;;;75.50;45.40;;;;;;;;;;5048598;28;20049;-70
2021/09/27 05:16:46;;;;;;;80.40;46.42;;;;;;;;;;5051721;28;20407;-70
2021/09/27 05:19:50;;;;;;;82.97;48.03;;;;;;;;;;5051772;28;20052;-70
2021/09/27 05:22:50;;;;;;;91.15;50.13;;;;;;;;;;5051921;28;20053;-69
2021/09/27 05:25:54;;;;;;;82.70;46.35;;;;;;;;;;5048897;28;20056;-69
2021/09/27 05:28:39;;;;;;;80.65;46.45;;;;;;;;;;5050330;28;20420;-70
2021/09/27 05:31:30;;;;;;;83.25;48.15;;;;;;;;;;5047122;28;20061;-70
2021/09/27 05:34:33;;;;;;;84.90;47.58;;;;;;;;;;5052685;28;20048;-69
2021/09/27 05:37:28;;;;;;;77.75;47.13;;;;;;;;;;5055481;28;20511;-70
2021/09/27 05:40:19;;;;;;;82.13;48.13;;;;;;;;;;5054642;28;20099;-69
2021/09/27 05:43:08;;;;;;;85.82;49.83;;;;;;;;;;5054078;28;20056;-68
2021/09/27 05:45:57;;;;;;;79.40;48.00;;;;;;;;;;5059641;22;20045;-67
2021/09/27 05:48:45;;;;;;;76.30;45.95;;;;;;;;;;5014514;28;20050;-68
2021/09/27 05:51:32;;;;;;;75.63;49.45;;;;;;;;;;5011003;28;20053;-68
2021/09/27 05:54:27;;;;;;;84.82;49.95;;;;;;;;;;5000301;28;20054;-70
2021/09/27 05:57:13;;;;;;;87.93;51.05;;;;;;;;;;5012742;28;20050;-70
2021/09/27 06:00:02;;;;;;;87.63;47.78;;;;;;;;;;5000731;28;20054;-70
2021/09/27 06:03:05;;;;;;;90.63;51.67;;;;;;;;;;5001000;28;20058;-73
2021/09/27 06:05:51;;;;;;;92.55;53.83;;;;;;;;;;5014265;28;20392;-69
2021/09/27 06:08:55;;;;;;;90.70;52.35;;;;;;;;;;5000387;28;20054;-68
2021/09/27 06:11:49;;;;;;;85.15;48.90;;;;;;;;;;5014129;28;20054;-68
2021/09/27 06:14:34;;;;;;;89.32;50.35;;;;;;;;;;5015093;28;20049;-70
2021/09/27 06:17:21;;;;;;;92.25;52.53;;;;;;;;;;5011598;28;20057;-68
2021/09/27 06:20:20;;;;;;;73.20;46.00;;;;;;;;;;5000554;28;20054;-69
2021/09/27 06:23:24;;;;;;;82.93;46.97;;;;;;;;;;5013908;28;20057;-68
2021/09/27 06:26:11;;;;;;;78.88;47.03;;;;;;;;;;5015014;28;20050;-69
2021/09/27 06:29:04;;;;;;;70.35;44.28;;;;;;;;;;5011417;28;20053;-69
2021/09/27 06:31:51;;;;;;;73.50;45.20;;;;;;;;;;5000374;28;20385;-69
2021/09/27 06:34:43;;;;;;;65.35;43.10;;;;;;;;;;4999683;28;20504;-69
2021/09/27 06:37:28;;;;;;;82.35;47.53;;;;;;;;;;4998602;28;20062;-68
2021/09/27 06:40:13;;;;;;;81.75;48.08;;;;;;;;;;5000270;28;20460;-69
2021/09/27 06:42:58;;;;;;;87.53;47.03;;;;;;;;;;5013670;28;20061;-69
2021/09/27 06:45:43;;;;;;;77.65;46.08;;;;;;;;;;5007381;28;20050;-70
2021/09/27 06:48:28;;;;;;;92.03;48.95;;;;;;;;;;5012361;28;20054;-70
2021/09/27 06:51:13;;;;;;;89.05;47.70;;;;;;;;;;5008639;28;20415;-69
2021/09/27 06:53:59;;;;;;;98.47;47.78;;;;;;;;;;5013067;28;20057;-70
2021/09/27 06:56:45;;;;;;;86.75;47.45;;;;;;;;;;5013069;28;20397;-69
2021/09/27 06:59:30;;;;;;;79.78;45.30;;;;;;;;;;5013602;28;20412;-68
2021/09/27 07:02:18;;;;;;;83.60;45.90;;;;;;;;;;5003409;28;20520;-69
2021/09/27 07:05:03;;;;;;;72.95;44.72;;;;;;;;;;4993305;28;20062;-68
2021/09/27 07:07:48;;;;;;;68.30;41.80;;;;;;;;;;4982461;28;20393;-69
2021/09/27 07:10:33;;;;;;;68.25;43.90;;;;;;;;;;4994686;28;20054;-69
2021/09/27 07:13:18;;;;;;;67.97;43.20;;;;;;;;;;4993439;28;20054;-70
2021/09/27 07:16:04;;;;;;;62.33;41.08;;;;;;;;;;4992830;28;20058;-69
2021/09/27 07:18:49;;;;;;;63.88;42.60;;;;;;;;;;5012895;28;20054;-69
2021/09/27 07:21:34;;;;;;;60.63;40.92;;;;;;;;;;5014220;28;20062;-69
2021/09/27 07:24:24;;;;;;;62.30;40.45;;;;;;;;;;5012162;28;20057;-69
2021/09/27 07:27:09;;;;;;;64.05;41.15;;;;;;;;;;5014076;28;20117;-69
2021/09/27 07:29:54;;;;;;;56.05;38.05;;;;;;;;;;5012637;28;20050;-69
2021/09/27 07:32:39;;;;;;;56.50;38.45;;;;;;;;;;5012672;28;20061;-69
2021/09/27 07:35:25;;;;;;;59.22;40.58;;;;;;;;;;4996625;28;20056;-69
2021/09/27 07:38:10;;;;;;;53.97;37.40;;;;;;;;;;4998839;28;20058;-69
2021/09/27 07:40:56;;;;;;;51.33;35.45;;;;;;;;;;5012841;28;20093;-69
2021/09/27 07:43:41;;;;;;;54.08;36.90;;;;;;;;;;5013445;28;20054;-68
2021/09/27 07:46:26;;;;;;;49.65;36.28;;;;;;;;;;4997110;28;20050;-68
2021/09/27 07:49:11;;;;;;;48.10;35.17;;;;;;;;;;4998572;28;20128;-68
2021/09/27 07:51:57;;;;;;;50.40;34.30;;;;;;;;;;4998418;28;20054;-69
2021/09/27 07:54:42;;;;;;;54.25;38.58;;;;;;;;;;5007468;28;20451;-69
2021/09/27 07:57:28;;;;;;;42.25;34.33;;;;;;;;;;4991881;28;20058;-70
2021/09/27 08:00:13;;;;;;;40.20;30.83;;;;;;;;;;4992550;28;20058;-69
2021/09/27 08:02:58;;;;;;;38.83;31.85;;;;;;;;;;4993975;28;20058;-69
2021/09/27 08:05:44;;;;;;;40.50;32.22;;;;;;;;;;4991434;28;20050;-71
2021/09/27 08:08:29;;;;;;;37.75;30.23;;;;;;;;;;5011301;28;20126;-70
2021/09/27 08:11:14;;;;;;;37.28;31.17;;;;;;;;;;4998110;28;20397;-70
2021/09/27 08:13:59;;;;;;;36.30;29.95;;;;;;;;;;5011850;28;20054;-71
2021/09/27 08:16:44;;;;;;;36.88;29.58;;;;;;;;;;5010409;28;20042;-70
2021/09/27 08:19:30;;;;;;;30.88;27.45;;;;;;;;;;5011723;28;20540;-71
2021/09/27 08:22:15;;;;;;;34.03;29.38;;;;;;;;;;5013162;28;20057;-70
2021/09/27 08:25:01;;;;;;;29.02;25.17;;;;;;;;;;5011440;28;20058;-70
2021/09/27 08:27:46;;;;;;;30.77;25.98;;;;;;;;;;4999691;28;20059;-69
2021/09/27 08:30:32;;;;;;;30.30;26.90;;;;;;;;;;4991921;28;20521;-69
2021/09/27 08:33:19;;;;;;;29.77;23.67;;;;;;;;;;4993318;28;20054;-71
2021/09/27 08:36:05;;;;;;;29.60;23.88;;;;;;;;;;4991784;28;20062;-70
2021/09/27 08:38:50;;;;;;;26.13;23.42;;;;;;;;;;5007002;28;20061;-71
2021/09/27 08:41:54;;;;;;;23.70;21.33;;;;;;;;;;5014790;28;20128;-70
2021/09/27 08:44:39;;;;;;;25.17;22.52;;;;;;;;;;4997385;28;20484;-68
2021/09/27 08:47:27;;;;;;;24.77;22.33;;;;;;;;;;5009026;28;20049;-69
2021/09/27 08:50:14;;;;;;;24.88;22.48;;;;;;;;;;5006770;28;20054;-69
2021/09/27 08:52:59;;;;;;;23.67;20.77;;;;;;;;;;4974953;28;20058;-70
2021/09/27 08:55:45;;;;;;;22.33;20.00;;;;;;;;;;4967275;28;20117;-69
2021/09/27 08:58:38;;;;;;;23.33;20.90;;;;;;;;;;5011497;28;20436;-70
2021/09/27 09:01:24;;;;;;;23.20;20.73;;;;;;;;;;5011823;28;20455;-71
2021/09/27 09:04:30;;;;;;;23.65;21.33;;;;;;;;;;4997185;28;20058;-70
2021/09/27 09:07:19;;;;;;;24.27;21.55;;;;;;;;;;5009439;28;20050;-68
2021/09/27 09:10:06;;;;;;;23.25;20.27;;;;;;;;;;4997084;28;20053;-68
2021/09/27 09:12:52;;;;;;;22.33;19.95;;;;;;;;;;4997342;28;20054;-69
2021/09/27 09:15:37;;;;;;;21.98;19.73;;;;;;;;;;5010980;28;20093;-68
2021/09/27 09:18:24;;;;;;;21.45;19.20;;;;;;;;;;5011389;28;20054;-69
2021/09/27 09:21:11;;;;;;;21.50;19.20;;;;;;;;;;5009953;28;20058;-71
2021/09/27 09:23:57;;;;;;;21.80;18.40;;;;;;;;;;4996994;28;20128;-68
2021/09/27 09:26:46;;;;;;;23.27;19.30;;;;;;;;;;4995913;28;20407;-70
2021/09/27 09:29:32;;;;;;;19.73;17.77;;;;;;;;;;5008853;28;20503;-70
2021/09/27 09:32:19;;;;;;;20.75;17.80;;;;;;;;;;5011005;28;20061;-69
2021/09/27 09:35:33;;;;;;;21.23;16.80;;;;;;;;;;4996948;28;20058;-71
2021/09/27 09:38:20;;;;;;;18.63;16.73;;;;;;;;;;5004365;28;20049;-68
2021/09/27 09:41:06;;;;;;;19.13;16.23;;;;;;;;;;4995380;28;20062;-68
2021/09/27 09:43:52;;;;;;;17.55;15.70;;;;;;;;;;5011685;28;20063;-68
2021/09/27 09:46:37;;;;;;;16.45;14.73;;;;;;;;;;5011026;28;20058;-69
2021/09/27 09:49:23;;;;;;;16.35;14.60;;;;;;;;;;5009159;28;20508;-70
2021/09/27 09:52:07;;;;;;;14.35;12.90;;;;;;;;;;5010774;28;20065;-68
2021/09/27 09:54:53;;;;;;;16.55;13.48;;;;;;;;;;5010542;28;20200;-68
2021/09/27 09:57:40;;;;;;;14.82;13.27;;;;;;;;;;4997189;28;20058;-71
2021/09/27 10:00:46;;;;;;;15.63;13.85;;;;;;;;;;5009534;28;20058;-70
2021/09/27 10:03:42;;;;;;;14.75;13.25;;;;;;;;;;4996527;28;20488;-68
2021/09/27 10:06:32;;;;;;;14.32;12.93;;;;;;;;;;4996942;28;20057;-68
2021/09/27 10:09:19;;;;;;;14.15;12.73;;;;;;;;;;5010568;28;20050;-69
2021/09/27 10:12:05;;;;;;;13.57;12.20;;;;;;;;;;5008934;28;20129;-68
2021/09/27 10:14:50;;;;;;;14.70;13.20;;;;;;;;;;4996509;28;20066;-68
2021/09/27 10:17:39;;;;;;;14.85;12.07;;;;;;;;;;4996697;28;20054;-68
2021/09/27 10:20:30;;;;;;;23.30;13.18;;;;;;;;;;5009660;28;20061;-67
2021/09/27 10:23:15;;;;;;;13.15;11.75;;;;;;;;;;5013990;28;20132;-67
2021/09/27 10:26:21;;;;;;;15.25;12.35;;;;;;;;;;5000527;28;20416;-68
2021/09/27 10:29:08;;;;;;;15.32;12.50;;;;;;;;;;5015357;28;20050;-68
2021/09/27 10:31:59;;;;;;;15.98;11.07;;;;;;;;;;4998497;28;20496;-68
2021/09/27 10:34:45;;;;;;;;;;;;;;;;;;5000224;28;20062;-68
2021/09/27 10:37:30;;;;;;;12.00;10.90;;;;;;;;;;5013681;28;20012;-68
2021/09/27 10:40:16;;;;;;;11.50;10.40;;;;;;;;;;5013680;28;20062;-68
2021/09/27 10:43:02;;;;;;;11.07;10.05;;;;;;;;;;5013209;28;20054;-70
2021/09/27 10:45:48;;;;;;;14.27;10.82;;;;;;;;;;4999427;28;20054;-68
2021/09/27 10:48:33;;;;;;;10.48;7.90;;;;;;;;;;4998217;28;20050;-70
2021/09/27 10:51:18;;;;;;;9.15;8.25;;;;;;;;;;5013853;28;20057;-71
2021/09/27 10:54:15;;;;;;;8.88;8.05;;;;;;;;;;4999539;28;20061;-69
2021/09/27 10:57:00;;;;;;;13.00;9.27;;;;;;;;;;5029269;28;20061;-69
2021/09/27 10:59:53;;;;;;;8.70;7.78;;;;;;;;;;4999618;28;20053;-69
2021/09/27 11:02:43;;;;;;;24.80;8.68;;;;;;;;;;5013480;28;20424;-69
2021/09/27 11:05:47;;;;;;;9.57;7.45;;;;;;;;;;4997648;28;20054;-69
2021/09/27 11:08:35;;;;;;;9.70;8.70;;;;;;;;;;5017273;28;20054;-70
2021/09/27 11:11:29;;;;;;;8.77;7.22;;;;;;;;;;5013397;28;20058;-70
2021/09/27 11:14:41;;;;;;;12.30;7.28;;;;;;;;;;5013092;28;20061;-70
2021/09/27 11:17:32;;;;;;;23.00;7.22;;;;;;;;;;5011389;28;20121;-70
2021/09/27 11:20:40;;;;;;;7.25;6.55;;;;;;;;;;5012224;28;20447;-69
2021/09/27 11:23:26;;;;;;;8.98;7.15;;;;;;;;;;5013038;28;20129;-70
2021/09/27 11:26:15;;;;;;;10.95;7.00;;;;;;;;;;4997758;28;20058;-69
2021/09/27 11:29:15;;;;;;;9.00;7.18;;;;;;;;;;5012311;28;20116;-69
2021/09/27 11:32:30;;;;;;;7.97;6.28;;;;;;;;;;5011923;28;20499;-69
2021/09/27 11:35:33;;;;;;;8.45;6.70;;;;;;;;;;5012396;28;20054;-70
2021/09/27 11:38:18;;;;;;;8.63;6.85;;;;;;;;;;5011019;28;20057;-70
2021/09/27 11:41:12;;;;;;;7.20;6.07;;;;;;;;;;5012433;28;20062;-70
2021/09/27 11:44:09;;;;;;;8.80;6.40;;;;;;;;;;5012060;28;20389;-71
2021/09/27 11:47:01;;;;;;;7.18;6.47;;;;;;;;;;5059082;22;20526;-68
2021/09/27 11:49:58;;;;;;;7.72;6.60;;;;;;;;;;5034434;28;20046;-70
2021/09/27 11:52:48;;;;;;;7.97;6.50;;;;;;;;;;5033549;28;20057;-71
2021/09/27 11:55:38;;;;;;;8.23;6.80;;;;;;;;;;5031366;28;20069;-71
2021/09/27 11:58:25;;;;;;;7.07;6.38;;;;;;;;;;5013746;28;20050;-71
2021/09/27 12:01:35;;;;;;;7.00;6.30;;;;;;;;;;5013419;28;20532;-71
2021/09/27 12:04:20;;;;;;;9.32;6.78;;;;;;;;;;5013288;28;20058;-70
2021/09/27 12:07:07;;;;;;;11.23;6.63;;;;;;;;;;5012688;28;20054;-71
2021/09/27 12:09:54;;;;;;;7.35;5.93;;;;;;;;;;4993600;28;20431;-71
2021/09/27 12:12:43;;;;;;;10.60;6.70;;;;;;;;;;4992388;28;20473;-71
2021/09/27 12:15:42;;;;;;;7.90;6.60;;;;;;;;;;4978714;28;20054;-70
2021/09/27 12:18:37;;;;;;;8.85;6.38;;;;;;;;;;5006893;28;20054;-69
2021/09/27 12:21:26;;;;;;;9.27;6.68;;;;;;;;;;5031403;28;20511;-69
2021/09/27 12:24:19;;;;;;;9.20;7.18;;;;;;;;;;5031264;28;20500;-69
2021/09/27 12:27:04;;;;;;;8.20;6.35;;;;;;;;;;5031616;28;20053;-70
2021/09/27 12:29:49;;;;;;;7.50;6.72;;;;;;;;;;5030539;28;20045;-71
2021/09/27 12:32:35;;;;;;;8.20;6.85;;;;;;;;;;5032399;28;20507;-70
2021/09/27 12:35:23;;;;;;;7.88;6.88;;;;;;;;;;5031958;28;20087;-70
2021/09/27 12:38:09;;;;;;;9.98;7.38;;;;;;;;;;5031256;28;20053;-70
2021/09/27 12:40:54;;;;;;;7.88;6.90;;;;;;;;;;5032507;28;20092;-70
2021/09/27 12:43:39;;;;;;;9.82;7.43;;;;;;;;;;5016440;28;20061;-71
2021/09/27 12:46:25;;;;;;;7.50;6.65;;;;;;;;;;5032334;28;20057;-70
2021/09/27 12:49:10;;;;;;;31.35;8.32;;;;;;;;;;5029775;28;20045;-70
2021/09/27 12:51:56;;;;;;;13.75;6.80;;;;;;;;;;5029796;28;20057;-71
2021/09/27 12:54:43;;;;;;;7.80;6.72;;;;;;;;;;5017011;28;20057;-69
2021/09/27 12:57:29;;;;;;;11.10;6.10;;;;;;;;;;5017322;28;20053;-69
2021/09/27 13:00:25;;;;;;;8.50;6.28;;;;;;;;;;5016066;28;20534;-71
2021/09/27 13:03:10;;;;;;;10.50;5.90;;;;;;;;;;5032676;28;20049;-71
2021/09/27 13:06:00;;;;;;;7.60;5.45;;;;;;;;;;5032154;28;20055;-69
2021/09/27 13:08:49;;;;;;;9.25;5.68;;;;;;;;;;5030818;28;20084;-70
2021/09/27 13:11:34;;;;;;;6.88;5.80;;;;;;;;;;5030923;28;20049;-70
2021/09/27 13:14:26;;;;;;;16.90;10.68;;;;;;;;;;5032360;28;20508;-70
2021/09/27 13:17:15;;;;;;;9.90;5.60;;;;;;;;;;5030664;28;20053;-69
2021/09/27 13:20:01;;;;;;;9.88;5.28;;;;;;;;;;5030993;28;20089;-71
2021/09/27 13:22:46;;;;;;;7.85;5.00;;;;;;;;;;5031538;28;20058;-71
2021/09/27 13:25:37;;;;;;;8.25;5.40;;;;;;;;;;5032154;28;20511;-71
2021/09/27 13:28:38;;;;;;;8.60;5.20;;;;;;;;;;5014091;28;20412;-70
2021/09/27 13:31:25;;;;;;;7.17;5.37;;;;;;;;;;5032077;28;20068;-71
2021/09/27 13:34:27;;;;;;;14.15;5.70;;;;;;;;;;5031829;28;20053;-70
2021/09/27 13:37:24;;;;;;;12.18;6.18;;;;;;;;;;5029083;28;20054;-71
2021/09/27 13:40:27;;;;;;;14.90;5.63;;;;;;;;;;5031765;28;20054;-71
2021/09/27 13:43:18;;;;;;;8.90;5.70;;;;;;;;;;5030504;28;20053;-70
2021/09/27 13:46:08;;;;;;;9.67;6.00;;;;;;;;;;5030394;28;20104;-70
2021/09/27 13:48:53;;;;;;;11.77;5.55;;;;;;;;;;5029154;28;20128;-70
2021/09/27 13:51:39;;;;;;;9.50;5.80;;;;;;;;;;5030386;28;20053;-70
2021/09/27 13:54:24;;;;;;;7.45;6.30;;;;;;;;;;5032231;28;20132;-70
2021/09/27 13:57:10;;;;;;;11.15;5.30;;;;;;;;;;5034605;28;20057;-72
2021/09/27 13:59:55;;;;;;;7.72;5.75;;;;;;;;;;5033113;28;20057;-72
2021/09/27 14:02:40;;;;;;;20.92;6.28;;;;;;;;;;5034956;28;20061;-71
2021/09/27 14:05:25;;;;;;;8.32;5.50;;;;;;;;;;5034440;28;20054;-72
2021/09/27 14:08:11;;;;;;;7.75;6.05;;;;;;;;;;5032858;28;20160;-71
2021/09/27 14:10:57;;;;;;;8.32;5.80;;;;;;;;;;5035220;28;20045;-72
2021/09/27 14:13:42;;;;;;;6.05;4.72;;;;;;;;;;5035810;28;20054;-71
2021/09/27 14:16:27;;;;;;;23.98;13.80;;;;;;;;;;5035259;28;20053;-72
2021/09/27 14:19:12;;;;;;;8.55;5.15;;;;;;;;;;5033585;28;20072;-71
2021/09/27 14:22:00;;;;;;;9.73;6.70;;;;;;;;;;5033990;28;20069;-69
2021/09/27 14:24:45;;;;;;;8.60;5.15;;;;;;;;;;5033417;28;20077;-68
2021/09/27 14:27:30;;;;;;;6.20;5.60;;;;;;;;;;5035055;28;20523;-68
2021/09/27 14:30:16;;;;;;;8.52;6.00;;;;;;;;;;5033665;28;20049;-71
2021/09/27 14:33:01;;;;;;;69.10;9.70;;;;;;;;;;5019790;28;20053;-70
2021/09/27 14:35:46;;;;;;;11.70;5.70;;;;;;;;;;5034528;28;20054;-71
2021/09/27 14:38:31;;;;;;;7.43;5.15;;;;;;;;;;5034839;28;20421;-69
2021/09/27 14:41:17;;;;;;;8.55;5.80;;;;;;;;;;5030532;28;20057;-69
2021/09/27 14:44:02;;;;;;;7.05;5.30;;;;;;;;;;5033200;28;20499;-69
2021/09/27 14:46:47;;;;;;;9.95;4.13;;;;;;;;;;5033167;28;20057;-70
2021/09/27 14:49:32;;;;;;;10.07;4.75;;;;;;;;;;5031986;28;20128;-71
2021/09/27 14:52:17;;;;;;;8.88;3.90;;;;;;;;;;5035110;28;20058;-70
2021/09/27 14:55:03;;;;;;;6.93;4.75;;;;;;;;;;5011201;28;20058;-69
2021/09/27 14:57:48;;;;;;;5.38;4.13;;;;;;;;;;5008741;28;20046;-71
2021/09/27 15:00:34;;;;;;;5.03;4.00;;;;;;;;;;5020997;28;20061;-70
2021/09/27 15:03:21;;;;;;;6.25;2.78;;;;;;;;;;5026052;28;20057;-71
2021/09/27 15:06:06;;;;;;;6.00;3.92;;;;;;;;;;5013870;28;20053;-71
2021/09/27 15:08:51;;;;;;;6.32;3.35;;;;;;;;;;5014373;28;20109;-70
2021/09/27 15:11:37;;;;;;;6.75;4.40;;;;;;;;;;5026065;28;20046;-70
2021/09/27 15:14:22;;;;;;;6.55;3.97;;;;;;;;;;5033669;28;20096;-72
2021/09/27 15:17:07;;;;;;;5.82;3.70;;;;;;;;;;5032553;28;20411;-72
2021/09/27 15:19:52;;;;;;;4.85;3.50;;;;;;;;;;5035491;28;20049;-71
2021/09/27 15:22:38;;;;;;;8.00;4.60;;;;;;;;;;5034688;28;20103;-72
2021/09/27 15:25:29;;;;;;;8.60;5.47;;;;;;;;;;5031521;28;20057;-69
2021/09/27 15:28:15;;;;;;;6.35;5.05;;;;;;;;;;5032783;28;20057;-70
2021/09/27 15:31:00;;;;;;;11.20;7.00;;;;;;;;;;5032244;28;20062;-69
2021/09/27 15:33:45;;;;;;;8.63;6.35;;;;;;;;;;5032811;28;20411;-69
2021/09/27 15:36:36;;;;;;;15.57;9.20;;;;;;;;;;5031716;28;20049;-68
2021/09/27 15:39:21;;;;;;;5.57;4.18;;;;;;;;;;5033067;28;20045;-68
2021/09/27 15:42:06;;;;;;;4.07;1.75;;;;;;;;;;5032219;28;20049;-68
2021/09/27 15:44:52;;;;;;;3.65;1.30;;;;;;;;;;5031364;28;20053;-68
2021/09/27 15:47:37;;;;;;;3.13;1.25;;;;;;;;;;5032342;28;20085;-68
2021/09/27 15:50:22;;;;;;;1.13;0.80;;;;;;;;;;5028386;28;20049;-68
2021/09/27 15:53:07;;;;;;;1.48;1.10;;;;;;;;;;5033374;28;20057;-67
2021/09/27 15:55:53;;;;;;;4.72;1.50;;;;;;;;;;5031890;28;20419;-67
2021/09/27 15:58:38;;;;;;;5.20;1.40;;;;;;;;;;5031969;28;20053;-67
2021/09/27 16:01:23;;;;;;;3.58;1.42;;;;;;;;;;5030851;28;20061;-68
2021/09/27 16:04:08;;;;;;;4.88;1.98;;;;;;;;;;5032885;28;20049;-67
2021/09/27 16:06:54;;;;;;;3.90;1.15;;;;;;;;;;5031638;28;20053;-66
2021/09/27 16:09:39;;;;;;;0.90;0.80;;;;;;;;;;5032041;28;20053;-68
2021/09/27 16:12:24;;;;;;;2.38;1.00;;;;;;;;;;5030119;28;20061;-67
2021/09/27 16:15:09;;;;;;;1.38;1.00;;;;;;;;;;5032799;28;20061;-69
2021/09/27 16:17:54;;;;;;;1.08;0.50;;;;;;;;;;5009713;28;20536;-67
2021/09/27 16:20:40;;;;;;;0.77;0.77;;;;;;;;;;4995426;28;20054;-68
2021/09/27 16:23:25;;;;;;;1.70;1.00;;;;;;;;;;5011153;28;20053;-67
2021/09/27 16:26:10;;;;;;;1.92;1.05;;;;;;;;;;4998969;28;20046;-68
2021/09/27 16:28:55;;;;;;;2.25;0.65;;;;;;;;;;5010208;28;20125;-68
2021/09/27 16:31:47;;;;;;;1.20;0.90;;;;;;;;;;5012412;28;20046;-69
2021/09/27 16:34:33;;;;;;;3.78;0.75;;;;;;;;;;5030695;28;20053;-69
2021/09/27 16:37:18;;;;;;;2.58;0.90;;;;;;;;;;5030530;28;20053;-69